Pittsburgh, Pennsylvania
Traffic Map
Current Weather Conditions
Pittsburgh, Pennsylvania
Broken Clouds Haze
Broken Clouds
71°
Feels Like: 71°
Wind Chill: 71° Ceiling: 300
Heat Index: 71° Visibility: 2.5mi
Dew Point: 68° Wind: 3mph
Humidity: 90% Direction: 200° (SSW)
Pressure: 29.98in Gusts: 0mph
Raw Report DataKAGC 310343Z 20003KT 2 1/2SM BR BKN003 22/20 A2998 RMK AO2 T02170200
Traffic Incident Summary
Active as of:
Severity:
Category:
InformationThere was an issue retrieving the traffic information for this location. Please try a different location or try again shortly.
Advertisements
Track Severe Weather on mobile